Time;durP1;ratioP1;P1;durP2;ratioP2;P2;SDS_P1;SDS_P2;PMS_P1;PMS_P2;Temp;Humidity;BMP_temperature;BMP_pressure;BME280_temperature;BME280_humidity;BME280_pressure;Samples;Min_cycle;Max_cycle;Signal;HPM_P1;HPM_P2
2023/09/15 00:01:49;;;;;;;9.35;3.58;;;;;;;;;;5048483;28;20025;-73
2023/09/15 00:04:15;;;;;;;14.25;3.70;;;;;;;;;;5054724;28;20021;-72
2023/09/15 00:06:42;;;;;;;7.00;3.60;;;;;;;;;;5050496;28;20025;-70
2023/09/15 00:09:14;;;;;;;8.90;3.53;;;;;;;;;;5050716;28;20021;-72
2023/09/15 00:11:40;;;;;;;8.60;3.45;;;;;;;;;;5050442;28;20013;-71
2023/09/15 00:14:08;;;;;;;8.38;3.38;;;;;;;;;;5050443;28;20036;-72
2023/09/15 00:16:34;;;;;;;10.55;3.38;;;;;;;;;;5050345;28;20472;-72
2023/09/15 00:19:00;;;;;;;9.85;3.40;;;;;;;;;;5050609;28;20036;-71
2023/09/15 00:21:26;;;;;;;8.63;3.50;;;;;;;;;;5052043;28;20377;-74
2023/09/15 00:23:52;;;;;;;10.57;3.13;;;;;;;;;;5052185;28;20024;-72
2023/09/15 00:26:23;;;;;;;10.48;3.35;;;;;;;;;;5051041;28;20452;-72
2023/09/15 00:28:49;;;;;;;8.43;2.90;;;;;;;;;;5051629;28;20391;-72
2023/09/15 00:31:15;;;;;;;7.30;2.95;;;;;;;;;;5051692;28;20025;-70
2023/09/15 00:33:41;;;;;;;12.20;3.28;;;;;;;;;;5051949;28;20083;-70
2023/09/15 00:36:07;;;;;;;9.82;3.95;;;;;;;;;;5051462;28;20024;-73
2023/09/15 00:38:34;;;;;;;5.45;3.22;;;;;;;;;;5051050;28;20112;-72
2023/09/15 00:41:00;;;;;;;11.00;3.70;;;;;;;;;;5051954;28;20037;-72
2023/09/15 00:43:26;;;;;;;5.72;3.28;;;;;;;;;;5051756;28;20036;-73
2023/09/15 00:45:52;;;;;;;10.35;3.15;;;;;;;;;;5050437;28;20395;-72
2023/09/15 00:48:18;;;;;;;8.10;3.30;;;;;;;;;;5050592;28;20028;-71
2023/09/15 00:50:45;;;;;;;7.35;3.50;;;;;;;;;;5051768;28;20033;-72
2023/09/15 00:53:14;;;;;;;9.98;3.63;;;;;;;;;;5050194;28;20025;-72
2023/09/15 00:55:40;;;;;;;12.52;3.90;;;;;;;;;;5051478;28;20033;-71
2023/09/15 00:58:11;;;;;;;9.70;3.65;;;;;;;;;;5050632;28;20111;-71
2023/09/15 01:00:37;;;;;;;8.57;3.40;;;;;;;;;;5050210;28;20021;-71
2023/09/15 01:03:04;;;;;;;10.68;3.55;;;;;;;;;;5049652;28;20112;-72
2023/09/15 01:05:31;;;;;;;13.57;4.05;;;;;;;;;;5050302;28;20435;-72
2023/09/15 01:07:57;;;;;;;8.75;3.20;;;;;;;;;;5051190;28;20033;-72
2023/09/15 01:10:24;;;;;;;6.70;2.85;;;;;;;;;;5050569;28;20064;-70
2023/09/15 01:12:51;;;;;;;9.02;3.28;;;;;;;;;;5053001;28;20024;-71
2023/09/15 01:15:18;;;;;;;11.32;3.50;;;;;;;;;;5053863;28;20025;-71
2023/09/15 01:17:55;;;;;;;6.45;3.03;;;;;;;;;;5056041;28;20035;-72
2023/09/15 01:20:41;;;;;;;12.50;3.83;;;;;;;;;;5055092;28;20055;-71
2023/09/15 01:23:42;;;;;;;10.05;3.63;;;;;;;;;;5053410;28;20231;-73
2023/09/15 01:26:27;;;;;;;9.70;3.10;;;;;;;;;;5032756;28;20081;-73
2023/09/15 01:29:18;;;;;;;11.30;3.80;;;;;;;;;;5050698;28;20531;-73
2023/09/15 01:31:44;;;;;;;8.20;3.28;;;;;;;;;;5056183;28;20032;-72
2023/09/15 01:34:14;;;;;;;7.78;3.20;;;;;;;;;;5062259;28;20025;-72
2023/09/15 01:36:40;;;;;;;8.75;2.90;;;;;;;;;;5053659;28;20422;-72
2023/09/15 01:39:06;;;;;;;13.93;3.70;;;;;;;;;;5055218;28;20571;-72
2023/09/15 01:41:32;;;;;;;12.50;3.78;;;;;;;;;;5054095;28;20025;-73
2023/09/15 01:43:58;;;;;;;11.60;3.28;;;;;;;;;;5054030;28;20112;-72
2023/09/15 01:46:24;;;;;;;9.95;3.20;;;;;;;;;;5053930;28;20039;-74
2023/09/15 01:48:52;;;;;;;11.32;3.63;;;;;;;;;;5057579;28;20025;-72
2023/09/15 01:51:19;;;;;;;7.47;3.42;;;;;;;;;;5052431;28;20432;-71
2023/09/15 01:53:45;;;;;;;8.55;3.28;;;;;;;;;;5052985;28;20381;-71
2023/09/15 01:56:14;;;;;;;11.60;3.25;;;;;;;;;;5052966;28;20029;-72
2023/09/15 01:58:40;;;;;;;10.27;3.83;;;;;;;;;;5053025;28;20013;-71
2023/09/15 02:01:07;;;;;;;7.85;3.60;;;;;;;;;;5052232;28;20036;-73
2023/09/15 02:03:32;;;;;;;6.70;2.83;;;;;;;;;;5052633;28;20024;-71
2023/09/15 02:06:03;;;;;;;6.68;3.33;;;;;;;;;;5052807;28;20475;-71
2023/09/15 02:08:29;;;;;;;11.48;3.60;;;;;;;;;;5052890;28;20028;-71
2023/09/15 02:10:55;;;;;;;9.23;2.97;;;;;;;;;;5052569;28;20029;-71
2023/09/15 02:13:21;;;;;;;8.65;3.10;;;;;;;;;;5052465;28;20105;-71
2023/09/15 02:15:47;;;;;;;13.05;3.60;;;;;;;;;;5052751;28;20028;-72
2023/09/15 02:18:13;;;;;;;12.07;3.50;;;;;;;;;;5052468;28;20021;-71
2023/09/15 02:20:40;;;;;;;11.00;3.55;;;;;;;;;;5052874;28;20025;-72
2023/09/15 02:23:06;;;;;;;10.82;3.65;;;;;;;;;;5052365;28;20479;-72
2023/09/15 02:25:34;;;;;;;9.07;3.58;;;;;;;;;;5052241;28;20108;-71
2023/09/15 02:28:02;;;;;;;8.93;3.58;;;;;;;;;;5052787;28;20401;-72
2023/09/15 02:30:28;;;;;;;12.65;3.70;;;;;;;;;;5052215;28;20475;-71
2023/09/15 02:32:54;;;;;;;10.68;3.60;;;;;;;;;;5052210;28;20026;-72
2023/09/15 02:35:20;;;;;;;13.35;4.32;;;;;;;;;;5052181;28;20387;-71
2023/09/15 02:37:46;;;;;;;9.52;3.78;;;;;;;;;;5052432;28;20352;-71
2023/09/15 02:40:14;;;;;;;11.73;3.75;;;;;;;;;;5055991;28;20032;-71
2023/09/15 02:42:40;;;;;;;14.45;3.30;;;;;;;;;;5051620;28;20025;-71
2023/09/15 02:45:06;;;;;;;9.63;3.25;;;;;;;;;;5051803;28;20095;-70
2023/09/15 02:47:32;;;;;;;7.88;3.45;;;;;;;;;;5053380;28;20117;-71
2023/09/15 02:49:58;;;;;;;9.85;3.95;;;;;;;;;;5051463;28;20112;-72
2023/09/15 02:52:25;;;;;;;11.48;3.47;;;;;;;;;;5051458;28;20509;-72
2023/09/15 02:54:51;;;;;;;7.45;3.05;;;;;;;;;;5052810;28;20290;-71
2023/09/15 02:57:17;;;;;;;7.43;3.00;;;;;;;;;;5053497;28;20056;-73
2023/09/15 02:59:43;;;;;;;9.95;3.30;;;;;;;;;;5052117;28;20043;-72
2023/09/15 03:02:12;;;;;;;6.68;2.97;;;;;;;;;;5051487;28;20059;-74
2023/09/15 03:04:39;;;;;;;13.27;3.50;;;;;;;;;;5051339;28;20021;-71
2023/09/15 03:07:06;;;;;;;10.10;3.13;;;;;;;;;;5051686;28;20032;-71
2023/09/15 03:09:32;;;;;;;8.05;3.50;;;;;;;;;;5051640;28;20052;-71
2023/09/15 03:11:58;;;;;;;5.75;3.00;;;;;;;;;;5051544;28;20071;-71
2023/09/15 03:14:24;;;;;;;9.73;3.58;;;;;;;;;;5051695;28;20025;-71
2023/09/15 03:16:51;;;;;;;13.95;3.78;;;;;;;;;;5052160;28;20029;-72
2023/09/15 03:19:17;;;;;;;13.38;3.38;;;;;;;;;;5052323;28;20496;-70
2023/09/15 03:21:43;;;;;;;8.65;2.90;;;;;;;;;;5051776;28;20296;-70
2023/09/15 03:24:09;;;;;;;11.25;2.90;;;;;;;;;;5051308;28;20496;-71
2023/09/15 03:26:35;;;;;;;8.05;3.10;;;;;;;;;;5052856;28;20021;-72
2023/09/15 03:29:02;;;;;;;8.60;2.88;;;;;;;;;;5052283;28;20036;-72
2023/09/15 03:31:28;;;;;;;13.52;3.25;;;;;;;;;;5052116;28;20374;-70
2023/09/15 03:33:54;;;;;;;9.43;3.42;;;;;;;;;;5052471;28;20041;-71
2023/09/15 03:36:21;;;;;;;9.98;3.33;;;;;;;;;;5053337;28;20445;-70
2023/09/15 03:38:47;;;;;;;9.07;3.78;;;;;;;;;;5052649;28;20059;-72
2023/09/15 03:41:14;;;;;;;10.10;3.53;;;;;;;;;;5052882;28;20033;-71
2023/09/15 03:43:40;;;;;;;7.57;3.63;;;;;;;;;;5051894;28;20021;-71
2023/09/15 03:46:06;;;;;;;7.85;2.85;;;;;;;;;;5051853;28;20051;-71
2023/09/15 03:48:32;;;;;;;5.72;2.50;;;;;;;;;;5051785;28;20025;-71
2023/09/15 03:50:59;;;;;;;7.30;2.88;;;;;;;;;;5051541;28;20028;-71
2023/09/15 03:53:25;;;;;;;6.88;2.67;;;;;;;;;;5051279;28;20056;-72
2023/09/15 03:55:51;;;;;;;7.45;2.70;;;;;;;;;;5051210;28;20395;-70
2023/09/15 03:58:17;;;;;;;7.22;2.92;;;;;;;;;;5050522;28;20139;-72
2023/09/15 04:00:44;;;;;;;6.53;2.88;;;;;;;;;;5050469;28;20100;-72
2023/09/15 04:03:11;;;;;;;5.82;2.65;;;;;;;;;;5052200;28;20021;-71
2023/09/15 04:05:38;;;;;;;7.28;2.92;;;;;;;;;;5051269;28;20036;-71
2023/09/15 04:08:04;;;;;;;4.90;2.60;;;;;;;;;;5051622;28;20471;-73
2023/09/15 04:10:30;;;;;;;5.00;2.60;;;;;;;;;;5051631;28;20033;-73
2023/09/15 04:12:56;;;;;;;5.70;2.80;;;;;;;;;;5052258;28;20028;-71
2023/09/15 04:15:22;;;;;;;5.35;2.50;;;;;;;;;;5052569;28;20472;-73
2023/09/15 04:17:48;;;;;;;5.70;2.58;;;;;;;;;;5053441;28;20051;-73
2023/09/15 04:20:14;;;;;;;6.03;2.83;;;;;;;;;;5052578;28;20060;-72
2023/09/15 04:22:42;;;;;;;7.10;3.38;;;;;;;;;;5050529;28;20445;-72
2023/09/15 04:25:08;;;;;;;10.25;3.17;;;;;;;;;;5050250;28;20025;-70
2023/09/15 04:27:34;;;;;;;7.60;2.85;;;;;;;;;;5050598;28;20426;-71
2023/09/15 04:30:01;;;;;;;12.40;3.22;;;;;;;;;;5050211;28;20056;-72
2023/09/15 04:32:27;;;;;;;7.50;2.80;;;;;;;;;;5049990;28;20043;-72
2023/09/15 04:34:54;;;;;;;8.95;3.28;;;;;;;;;;5049998;28;20021;-72
2023/09/15 04:37:20;;;;;;;6.97;3.08;;;;;;;;;;5051541;28;20557;-72
2023/09/15 04:39:49;;;;;;;7.95;3.00;;;;;;;;;;5050197;28;20383;-71
2023/09/15 04:42:15;;;;;;;15.63;4.05;;;;;;;;;;5048949;28;20044;-73
2023/09/15 04:44:41;;;;;;;6.45;2.85;;;;;;;;;;5052202;28;20482;-76
2023/09/15 04:47:07;;;;;;;9.57;3.38;;;;;;;;;;5061763;28;20480;-77
2023/09/15 04:49:33;;;;;;;10.65;3.55;;;;;;;;;;5063144;28;20059;-75
2023/09/15 04:51:59;;;;;;;8.38;3.15;;;;;;;;;;5063229;28;20021;-74
2023/09/15 04:54:26;;;;;;;9.15;3.58;;;;;;;;;;5065192;28;20025;-75
2023/09/15 04:56:52;;;;;;;9.00;4.03;;;;;;;;;;5072105;28;20029;-76
2023/09/15 04:59:19;;;;;;;9.23;3.47;;;;;;;;;;5074002;28;20035;-76
2023/09/15 05:01:46;;;;;;;6.88;3.17;;;;;;;;;;5056838;28;20025;-76
2023/09/15 05:04:18;;;;;;;6.07;3.38;;;;;;;;;;5054819;28;20406;-72
2023/09/15 05:06:45;;;;;;;7.97;3.70;;;;;;;;;;5055312;28;20430;-72
2023/09/15 05:09:11;;;;;;;10.30;4.05;;;;;;;;;;5054889;28;20110;-72
2023/09/15 05:11:40;;;;;;;9.82;3.80;;;;;;;;;;5054590;28;20473;-73
2023/09/15 05:14:06;;;;;;;7.43;3.05;;;;;;;;;;5054188;28;20033;-71
2023/09/15 05:16:32;;;;;;;8.25;3.40;;;;;;;;;;5054909;28;20029;-71
2023/09/15 05:18:58;;;;;;;10.25;4.35;;;;;;;;;;5060014;28;20060;-73
2023/09/15 05:21:24;;;;;;;9.48;4.10;;;;;;;;;;5064483;28;20025;-71
2023/09/15 05:23:50;;;;;;;6.38;3.75;;;;;;;;;;5058269;28;20036;-71
2023/09/15 05:26:16;;;;;;;12.50;4.00;;;;;;;;;;5056800;28;20526;-72
2023/09/15 05:28:42;;;;;;;11.88;3.80;;;;;;;;;;5052968;28;20060;-72
2023/09/15 05:31:08;;;;;;;8.43;4.15;;;;;;;;;;5053547;28;20084;-73
2023/09/15 05:33:34;;;;;;;8.93;4.03;;;;;;;;;;5053905;28;20041;-72
2023/09/15 05:36:00;;;;;;;10.43;4.10;;;;;;;;;;5054375;28;20100;-71
2023/09/15 05:38:26;;;;;;;7.53;3.90;;;;;;;;;;5054263;28;20021;-70
2023/09/15 05:40:52;;;;;;;10.10;3.65;;;;;;;;;;5054524;28;20116;-75
2023/09/15 05:43:19;;;;;;;8.93;3.95;;;;;;;;;;5056164;28;20455;-70
2023/09/15 05:45:46;;;;;;;14.07;4.43;;;;;;;;;;5056109;28;20032;-73
2023/09/15 05:48:17;;;;;;;9.85;4.80;;;;;;;;;;5056352;28;20029;-72
2023/09/15 05:50:44;;;;;;;11.40;4.38;;;;;;;;;;5056373;28;20033;-72
2023/09/15 05:53:10;;;;;;;7.93;4.40;;;;;;;;;;5054664;28;20096;-74
2023/09/15 05:55:36;;;;;;;8.40;4.47;;;;;;;;;;5054033;28;20435;-72
2023/09/15 05:58:02;;;;;;;12.77;4.28;;;;;;;;;;5054207;28;20049;-72
2023/09/15 06:00:28;;;;;;;14.23;5.40;;;;;;;;;;5053597;28;20090;-73
2023/09/15 06:02:54;;;;;;;15.23;4.95;;;;;;;;;;5052877;28;20387;-72
2023/09/15 06:05:22;;;;;;;8.80;4.55;;;;;;;;;;5053413;28;20033;-73
2023/09/15 06:07:51;;;;;;;11.85;4.68;;;;;;;;;;5053551;28;20518;-70
2023/09/15 06:10:17;;;;;;;10.35;4.60;;;;;;;;;;5053335;28;20048;-73
2023/09/15 06:12:43;;;;;;;11.38;5.13;;;;;;;;;;5053487;28;20475;-72
2023/09/15 06:15:10;;;;;;;10.00;5.00;;;;;;;;;;5053435;28;20055;-71
2023/09/15 06:17:36;;;;;;;17.10;6.55;;;;;;;;;;5053177;28;20036;-72
2023/09/15 06:20:04;;;;;;;9.23;5.03;;;;;;;;;;5053633;28;20063;-68
2023/09/15 06:22:30;;;;;;;10.65;4.88;;;;;;;;;;5052849;28;20021;-71
2023/09/15 06:24:56;;;;;;;13.80;5.20;;;;;;;;;;5053333;28;20123;-72
2023/09/15 06:27:22;;;;;;;13.50;5.30;;;;;;;;;;5052994;28;20094;-71
2023/09/15 06:29:48;;;;;;;12.93;7.55;;;;;;;;;;5053035;28;20067;-71
2023/09/15 06:32:14;;;;;;;16.80;5.78;;;;;;;;;;5052741;28;20044;-71
2023/09/15 06:34:40;;;;;;;12.05;5.68;;;;;;;;;;5053960;28;20459;-72
2023/09/15 06:37:06;;;;;;;11.43;5.57;;;;;;;;;;5054046;28;20163;-72
2023/09/15 06:39:34;;;;;;;16.83;5.57;;;;;;;;;;5058829;28;20467;-71
2023/09/15 06:42:00;;;;;;;17.15;6.40;;;;;;;;;;5057960;28;20163;-71
2023/09/15 06:44:26;;;;;;;15.88;6.07;;;;;;;;;;5059515;28;20049;-71
2023/09/15 06:46:52;;;;;;;12.98;5.35;;;;;;;;;;5055881;28;20029;-72
2023/09/15 06:49:21;;;;;;;12.90;6.55;;;;;;;;;;5055998;28;20021;-73
2023/09/15 06:51:48;;;;;;;30.25;9.45;;;;;;;;;;5054813;28;20045;-72
2023/09/15 06:54:14;;;;;;;27.45;10.15;;;;;;;;;;5053687;28;20017;-72
2023/09/15 06:56:40;;;;;;;24.95;10.48;;;;;;;;;;5055274;28;20033;-72
2023/09/15 06:59:06;;;;;;;13.60;6.05;;;;;;;;;;5055120;28;20028;-72
2023/09/15 07:01:32;;;;;;;18.58;6.18;;;;;;;;;;5054491;28;20479;-73
2023/09/15 07:03:58;;;;;;;10.10;5.10;;;;;;;;;;5054888;28;20025;-73
2023/09/15 07:06:24;;;;;;;12.02;4.93;;;;;;;;;;5055453;28;20068;-73
2023/09/15 07:08:50;;;;;;;13.00;5.45;;;;;;;;;;5056778;28;20029;-73
2023/09/15 07:11:16;;;;;;;15.38;5.55;;;;;;;;;;5056268;28;20057;-73
2023/09/15 07:13:42;;;;;;;13.00;4.75;;;;;;;;;;5052969;28;20025;-72
2023/09/15 07:16:09;;;;;;;20.95;6.43;;;;;;;;;;5052831;28;20017;-72
2023/09/15 07:18:35;;;;;;;14.68;5.30;;;;;;;;;;5052967;28;20387;-72
2023/09/15 07:21:01;;;;;;;12.35;4.88;;;;;;;;;;5053084;28;20207;-72
2023/09/15 07:23:27;;;;;;;19.83;4.75;;;;;;;;;;5052249;28;20602;-71
2023/09/15 07:25:53;;;;;;;11.85;5.20;;;;;;;;;;5052234;28;20036;-70
2023/09/15 07:28:20;;;;;;;9.90;4.85;;;;;;;;;;5052152;28;20502;-71
2023/09/15 07:30:46;;;;;;;16.35;4.28;;;;;;;;;;5052022;28;20101;-73
2023/09/15 07:33:12;;;;;;;11.68;4.70;;;;;;;;;;5053277;28;20025;-71
2023/09/15 07:35:38;;;;;;;13.30;4.75;;;;;;;;;;5053015;28;20045;-71
2023/09/15 07:38:04;;;;;;;13.10;4.60;;;;;;;;;;5051816;28;20021;-72
2023/09/15 07:40:30;;;;;;;15.48;5.43;;;;;;;;;;5051674;28;20044;-72
2023/09/15 07:42:56;;;;;;;19.60;4.53;;;;;;;;;;5051254;28;20454;-71
2023/09/15 07:45:23;;;;;;;12.88;5.47;;;;;;;;;;5051649;28;20112;-71
2023/09/15 07:47:49;;;;;;;13.68;4.70;;;;;;;;;;5052055;28;20060;-70
2023/09/15 07:50:18;;;;;;;11.88;3.70;;;;;;;;;;5051915;28;20029;-72
2023/09/15 07:52:47;;;;;;;14.70;5.97;;;;;;;;;;5051746;28;20033;-70
2023/09/15 07:55:13;;;;;;;14.10;4.15;;;;;;;;;;5051624;28;20029;-70
2023/09/15 07:57:40;;;;;;;13.07;4.03;;;;;;;;;;5051662;28;20021;-71
2023/09/15 08:00:07;;;;;;;11.60;4.20;;;;;;;;;;5051641;28;20494;-72
2023/09/15 08:02:33;;;;;;;13.02;3.83;;;;;;;;;;5051612;28;20021;-71
2023/09/15 08:04:59;;;;;;;10.45;3.90;;;;;;;;;;5051378;28;20104;-71
2023/09/15 08:07:25;;;;;;;12.13;3.80;;;;;;;;;;5051566;28;20029;-70
2023/09/15 08:09:52;;;;;;;11.60;3.88;;;;;;;;;;5051254;28;20094;-71
2023/09/15 08:12:19;;;;;;;10.07;3.80;;;;;;;;;;5051279;28;20084;-71
2023/09/15 08:14:46;;;;;;;14.10;3.70;;;;;;;;;;5053470;28;20352;-71
2023/09/15 08:17:12;;;;;;;9.73;3.67;;;;;;;;;;5051388;28;20087;-71
2023/09/15 08:19:38;;;;;;;7.78;3.28;;;;;;;;;;5055279;28;20068;-75
2023/09/15 08:22:05;;;;;;;8.90;3.33;;;;;;;;;;5073297;28;20021;-73
2023/09/15 08:24:32;;;;;;;11.35;4.32;;;;;;;;;;5072687;28;20174;-73
2023/09/15 08:26:58;;;;;;;11.27;3.88;;;;;;;;;;5077111;28;20067;-73
2023/09/15 08:29:24;;;;;;;10.75;3.55;;;;;;;;;;5077474;28;20074;-73
2023/09/15 08:31:50;;;;;;;8.32;4.10;;;;;;;;;;5076186;28;20025;-74
2023/09/15 08:34:16;;;;;;;8.25;3.53;;;;;;;;;;5075434;28;20027;-72
2023/09/15 08:36:42;;;;;;;8.98;3.40;;;;;;;;;;5056127;28;20471;-72
2023/09/15 08:39:09;;;;;;;8.75;3.40;;;;;;;;;;5055373;28;20025;-73
2023/09/15 08:41:35;;;;;;;9.20;3.65;;;;;;;;;;5055972;28;20091;-74
2023/09/15 08:44:02;;;;;;;12.75;3.20;;;;;;;;;;5055746;28;20029;-73
2023/09/15 08:46:31;;;;;;;10.57;3.50;;;;;;;;;;5055626;28;20104;-72
2023/09/15 08:48:58;;;;;;;8.07;3.13;;;;;;;;;;5055101;28;20021;-72
2023/09/15 08:51:24;;;;;;;10.98;4.82;;;;;;;;;;5055584;28;20514;-71
2023/09/15 08:53:56;;;;;;;5.28;2.70;;;;;;;;;;5054390;28;20021;-72
2023/09/15 08:56:22;;;;;;;16.23;2.92;;;;;;;;;;5054796;28;20021;-72
2023/09/15 08:58:48;;;;;;;9.48;2.80;;;;;;;;;;5054868;28;20078;-71
2023/09/15 09:01:15;;;;;;;7.82;2.72;;;;;;;;;;5054707;28;20040;-74
2023/09/15 09:03:42;;;;;;;10.77;3.40;;;;;;;;;;5054499;28;20047;-72
2023/09/15 09:06:12;;;;;;;8.45;3.00;;;;;;;;;;5054636;28;20032;-72
2023/09/15 09:08:40;;;;;;;10.35;3.40;;;;;;;;;;5054615;28;20557;-70
2023/09/15 09:11:07;;;;;;;12.10;3.03;;;;;;;;;;5053356;28;20104;-70
2023/09/15 09:13:33;;;;;;;9.90;2.60;;;;;;;;;;5054583;28;20096;-73
2023/09/15 09:15:59;;;;;;;12.43;3.35;;;;;;;;;;5055130;28;20025;-71
2023/09/15 09:18:26;;;;;;;7.18;2.75;;;;;;;;;;5055644;28;20028;-74
2023/09/15 09:20:52;;;;;;;5.55;2.38;;;;;;;;;;5058739;28;20032;-72
2023/09/15 09:23:19;;;;;;;6.90;2.90;;;;;;;;;;5067929;28;20037;-69
2023/09/15 09:25:45;;;;;;;13.38;7.05;;;;;;;;;;5070458;28;20021;-72
2023/09/15 09:28:12;;;;;;;7.63;2.95;;;;;;;;;;5056859;28;20033;-70
2023/09/15 09:30:38;;;;;;;10.63;3.17;;;;;;;;;;5055270;28;20102;-71
2023/09/15 09:33:05;;;;;;;9.98;3.30;;;;;;;;;;5055356;28;20391;-73
2023/09/15 09:35:31;;;;;;;10.98;4.45;;;;;;;;;;5053588;28;20033;-72
2023/09/15 09:37:59;;;;;;;7.32;3.20;;;;;;;;;;5054078;28;20100;-73
2023/09/15 09:40:26;;;;;;;12.63;3.80;;;;;;;;;;5054042;28;20396;-75
2023/09/15 09:42:53;;;;;;;12.45;5.45;;;;;;;;;;5053698;28;20033;-75
2023/09/15 09:45:30;;;;;;;5.78;2.55;;;;;;;;;;5054126;28;20036;-76
2023/09/15 09:47:57;;;;;;;5.43;2.80;;;;;;;;;;5056014;28;20031;-71
2023/09/15 09:50:23;;;;;;;11.23;4.03;;;;;;;;;;5055493;28;20028;-71
2023/09/15 09:52:50;;;;;;;9.82;3.20;;;;;;;;;;5055321;28;20029;-71
2023/09/15 09:55:16;;;;;;;7.88;3.47;;;;;;;;;;5054006;28;20028;-72
2023/09/15 09:57:42;;;;;;;9.02;4.18;;;;;;;;;;5053798;28;20025;-71
2023/09/15 10:00:10;;;;;;;10.73;3.63;;;;;;;;;;5053575;28;20095;-70
2023/09/15 10:02:40;;;;;;;10.65;3.55;;;;;;;;;;5053576;28;20024;-71
2023/09/15 10:05:07;;;;;;;9.13;3.35;;;;;;;;;;5053409;28;20025;-71
2023/09/15 10:07:33;;;;;;;13.13;4.00;;;;;;;;;;5053846;28;20475;-71
2023/09/15 10:09:59;;;;;;;11.68;3.55;;;;;;;;;;5053458;28;20039;-71
2023/09/15 10:12:25;;;;;;;10.75;3.63;;;;;;;;;;5054460;28;20025;-72
2023/09/15 10:14:52;;;;;;;5.30;3.20;;;;;;;;;;5055622;28;20040;-72
2023/09/15 10:17:19;;;;;;;8.25;3.95;;;;;;;;;;5058050;28;20017;-72
2023/09/15 10:19:46;;;;;;;11.63;3.55;;;;;;;;;;5059754;28;20505;-70
2023/09/15 10:22:13;;;;;;;9.60;3.40;;;;;;;;;;5054015;28;20059;-72
2023/09/15 10:24:43;;;;;;;8.30;4.22;;;;;;;;;;5053090;28;20029;-71
2023/09/15 10:27:09;;;;;;;12.25;3.53;;;;;;;;;;5053355;28;20025;-71
2023/09/15 10:29:37;;;;;;;12.07;3.72;;;;;;;;;;5053224;28;20045;-73
2023/09/15 10:32:04;;;;;;;13.10;3.97;;;;;;;;;;5052958;28;20044;-73
2023/09/15 10:34:30;;;;;;;12.20;3.88;;;;;;;;;;5052893;28;20049;-71
2023/09/15 10:36:59;;;;;;;10.55;3.42;;;;;;;;;;5053127;28;20025;-70
2023/09/15 10:39:35;;;;;;;10.05;3.75;;;;;;;;;;5053518;28;20033;-71
2023/09/15 10:42:13;;;;;;;8.95;3.28;;;;;;;;;;5052679;28;20025;-72
2023/09/15 10:44:42;;;;;;;11.00;3.53;;;;;;;;;;5053476;28;20522;-74
2023/09/15 10:47:15;;;;;;;9.80;3.88;;;;;;;;;;5053571;28;20025;-72
2023/09/15 10:49:48;;;;;;;12.38;3.33;;;;;;;;;;5054023;28;20036;-71
2023/09/15 10:52:15;;;;;;;11.35;3.30;;;;;;;;;;5055264;28;20479;-73
2023/09/15 10:54:41;;;;;;;12.23;3.50;;;;;;;;;;5053548;28;20024;-72
2023/09/15 10:57:08;;;;;;;10.10;3.60;;;;;;;;;;5052810;28;20024;-71
2023/09/15 10:59:36;;;;;;;12.80;3.50;;;;;;;;;;5053302;28;20078;-72
2023/09/15 11:02:02;;;;;;;9.27;3.58;;;;;;;;;;5052764;28;20032;-72
2023/09/15 11:04:29;;;;;;;11.00;3.22;;;;;;;;;;5053053;28;20106;-73
2023/09/15 11:06:55;;;;;;;12.18;3.17;;;;;;;;;;5053177;28;20021;-75
2023/09/15 11:09:25;;;;;;;10.38;3.05;;;;;;;;;;5052586;28;20547;-72
2023/09/15 11:11:52;;;;;;;8.63;3.13;;;;;;;;;;5052637;28;20033;-71
2023/09/15 11:14:19;;;;;;;9.90;3.15;;;;;;;;;;5052826;28;20017;-72
2023/09/15 11:16:45;;;;;;;7.60;3.28;;;;;;;;;;5053728;28;20021;-75
2023/09/15 11:19:12;;;;;;;8.98;3.55;;;;;;;;;;5053605;28;20031;-74
2023/09/15 11:21:39;;;;;;;5.43;3.15;;;;;;;;;;5054549;28;20519;-71
2023/09/15 11:24:05;;;;;;;7.05;3.50;;;;;;;;;;5053858;28;20040;-72
2023/09/15 11:26:31;;;;;;;6.20;3.10;;;;;;;;;;5055738;28;20033;-73
2023/09/15 11:28:59;;;;;;;9.90;3.20;;;;;;;;;;5055958;28;20033;-73
2023/09/15 11:31:25;;;;;;;6.93;3.67;;;;;;;;;;5054168;28;20057;-73
2023/09/15 11:33:52;;;;;;;6.90;2.80;;;;;;;;;;5055156;28;20021;-71
2023/09/15 11:36:21;;;;;;;7.50;2.97;;;;;;;;;;5053758;28;20444;-71
2023/09/15 11:38:47;;;;;;;13.23;3.47;;;;;;;;;;5052327;28;20052;-70
2023/09/15 11:41:15;;;;;;;5.95;3.00;;;;;;;;;;5051590;28;20040;-75
2023/09/15 11:43:43;;;;;;;7.07;2.92;;;;;;;;;;5052394;28;20025;-71
2023/09/15 11:46:09;;;;;;;13.90;3.00;;;;;;;;;;5053293;28;20025;-71
2023/09/15 11:48:38;;;;;;;10.10;3.58;;;;;;;;;;5054324;28;20067;-72
2023/09/15 11:51:11;;;;;;;16.10;6.35;;;;;;;;;;5053846;28;20079;-72
2023/09/15 11:53:37;;;;;;;6.80;2.80;;;;;;;;;;5050820;28;20029;-71
2023/09/15 11:56:03;;;;;;;11.82;2.95;;;;;;;;;;5051689;28;20086;-71
2023/09/15 11:58:29;;;;;;;7.93;3.03;;;;;;;;;;5051717;28;20027;-71
2023/09/15 12:00:55;;;;;;;11.77;3.13;;;;;;;;;;5051272;28;20100;-71
2023/09/15 12:03:22;;;;;;;11.68;2.72;;;;;;;;;;5051273;28;20033;-74
2023/09/15 12:05:48;;;;;;;5.47;2.45;;;;;;;;;;5052036;28;20036;-70
2023/09/15 12:08:14;;;;;;;8.63;2.88;;;;;;;;;;5051263;28;20476;-70
2023/09/15 12:10:42;;;;;;;8.30;3.13;;;;;;;;;;5051422;28;20028;-70
2023/09/15 12:13:08;;;;;;;8.23;3.00;;;;;;;;;;5051593;28;20017;-69
2023/09/15 12:15:35;;;;;;;7.35;2.67;;;;;;;;;;5051251;28;20029;-70
2023/09/15 12:18:04;;;;;;;9.80;2.85;;;;;;;;;;5051475;28;20028;-72
2023/09/15 12:20:34;;;;;;;4.35;2.53;;;;;;;;;;5051308;28;20029;-71
2023/09/15 12:23:02;;;;;;;7.80;2.58;;;;;;;;;;5051172;28;20083;-70
2023/09/15 12:25:28;;;;;;;5.03;2.53;;;;;;;;;;5051205;28;20483;-72
2023/09/15 12:27:54;;;;;;;7.00;2.65;;;;;;;;;;5051721;28;20029;-74
2023/09/15 12:30:20;;;;;;;7.28;2.90;;;;;;;;;;5049906;28;20453;-74
2023/09/15 12:32:47;;;;;;;6.93;2.40;;;;;;;;;;5051172;28;20014;-74
2023/09/15 12:35:14;;;;;;;5.03;2.95;;;;;;;;;;5051332;28;20388;-72
2023/09/15 12:37:41;;;;;;;7.70;2.60;;;;;;;;;;5051368;28;20365;-73
2023/09/15 12:40:07;;;;;;;7.03;2.92;;;;;;;;;;5051616;28;20384;-73
2023/09/15 12:42:33;;;;;;;4.97;2.58;;;;;;;;;;5051073;28;20087;-71
2023/09/15 12:44:59;;;;;;;7.57;3.03;;;;;;;;;;5051138;28;20025;-74
2023/09/15 12:47:25;;;;;;;12.55;3.03;;;;;;;;;;5051232;28;20433;-71
2023/09/15 12:49:51;;;;;;;7.35;3.45;;;;;;;;;;5051918;28;20029;-70
2023/09/15 12:52:17;;;;;;;8.13;2.78;;;;;;;;;;5062055;28;20043;-70
2023/09/15 12:54:43;;;;;;;5.45;2.92;;;;;;;;;;5063862;28;20463;-71
2023/09/15 12:57:09;;;;;;;6.57;2.88;;;;;;;;;;5070524;28;20052;-70
2023/09/15 12:59:35;;;;;;;7.55;2.95;;;;;;;;;;5059572;28;20477;-70
2023/09/15 13:02:02;;;;;;;6.15;2.80;;;;;;;;;;5069749;28;20170;-71
2023/09/15 13:04:28;;;;;;;4.20;2.35;;;;;;;;;;5067333;28;20007;-70
2023/09/15 13:06:54;;;;;;;7.10;2.92;;;;;;;;;;5061323;28;20060;-71
2023/09/15 13:09:27;;;;;;;6.55;2.80;;;;;;;;;;5051660;28;20533;-71
2023/09/15 13:11:54;;;;;;;9.63;3.23;;;;;;;;;;5071453;28;20020;-71
2023/09/15 13:14:20;;;;;;;6.70;3.03;;;;;;;;;;5064500;28;20028;-71
2023/09/15 13:16:48;;;;;;;6.30;3.08;;;;;;;;;;5063741;28;20028;-70
2023/09/15 13:19:14;;;;;;;7.20;3.55;;;;;;;;;;5070166;28;20215;-69
2023/09/15 13:21:39;;;;;;;9.93;2.92;;;;;;;;;;5068992;28;20025;-70
2023/09/15 13:24:06;;;;;;;5.82;2.88;;;;;;;;;;5054698;28;20598;-70
2023/09/15 13:26:32;;;;;;;6.90;2.58;;;;;;;;;;5066253;28;20051;-70
2023/09/15 13:28:59;;;;;;;4.93;3.13;;;;;;;;;;5070263;28;20373;-72
2023/09/15 13:31:25;;;;;;;5.95;2.72;;;;;;;;;;5066855;28;20025;-71
2023/09/15 13:33:51;;;;;;;7.63;3.13;;;;;;;;;;5061428;28;20476;-70
2023/09/15 13:36:19;;;;;;;6.18;2.67;;;;;;;;;;5056693;28;20053;-69
2023/09/15 13:38:45;;;;;;;6.75;2.90;;;;;;;;;;5071932;28;20396;-71
2023/09/15 13:41:11;;;;;;;8.20;2.78;;;;;;;;;;5067791;28;20103;-69
2023/09/15 13:43:37;;;;;;;6.13;2.65;;;;;;;;;;5056757;28;20074;-69
2023/09/15 13:46:06;;;;;;;6.85;3.97;;;;;;;;;;5068663;28;20024;-70
2023/09/15 13:48:32;;;;;;;7.00;2.80;;;;;;;;;;5063769;28;20724;-70
2023/09/15 13:50:58;;;;;;;7.80;2.78;;;;;;;;;;5066186;28;20630;-69
2023/09/15 13:53:24;;;;;;;6.68;2.60;;;;;;;;;;5057651;28;20021;-70
2023/09/15 13:55:52;;;;;;;7.28;2.63;;;;;;;;;;5065179;28;20074;-70
2023/09/15 13:58:19;;;;;;;7.07;3.65;;;;;;;;;;5068675;28;20476;-70
2023/09/15 14:01:00;;;;;;;6.25;2.63;;;;;;;;;;5061964;28;20131;-73
2023/09/15 14:03:27;;;;;;;5.18;2.95;;;;;;;;;;5053531;28;20569;-71
2023/09/15 14:05:53;;;;;;;5.30;2.90;;;;;;;;;;5053912;28;20025;-70
2023/09/15 14:08:20;;;;;;;4.35;2.45;;;;;;;;;;5054474;28;20388;-71
2023/09/15 14:10:46;;;;;;;5.70;3.13;;;;;;;;;;5053421;28;20017;-68
2023/09/15 14:13:14;;;;;;;5.40;2.60;;;;;;;;;;5053243;28;20040;-71
2023/09/15 14:15:42;;;;;;;5.65;2.90;;;;;;;;;;5053544;28;20017;-70
2023/09/15 14:18:08;;;;;;;7.78;2.75;;;;;;;;;;5053578;28;20067;-70
2023/09/15 14:20:34;;;;;;;4.03;2.40;;;;;;;;;;5054609;28;20029;-76
2023/09/15 14:23:00;;;;;;;8.48;3.08;;;;;;;;;;5053923;28;20027;-75
2023/09/15 14:25:26;;;;;;;5.60;2.75;;;;;;;;;;5054480;28;20025;-77
2023/09/15 14:27:52;;;;;;;7.28;3.40;;;;;;;;;;5053595;28;20029;-72
2023/09/15 14:30:18;;;;;;;17.88;3.97;;;;;;;;;;5052749;28;20025;-79
2023/09/15 14:32:44;;;;;;;13.57;10.48;;;;;;;;;;5053253;28;20116;-71
2023/09/15 14:35:11;;;;;;;13.75;4.00;;;;;;;;;;5053311;28;20024;-71
2023/09/15 14:37:37;;;;;;;10.15;3.15;;;;;;;;;;5053149;28;20017;-73